Le Roy, Illinois
Current Conditions -  °F | °C
As of 7:56 AM on Monday 26 Jan 2015 (Local Time) from KBMI Reporting Station
Clear Clear  
Wind Chill: 20°   Ceiling: Unl
Heat Index: 20°   Visibility: 10mi
Dew Point: 16°   Wind: 3mph
Humidity: 85%   Direction: 290°WNW
Pressure: 29.98"   Gusts: NA
Location:  40.35°N, 88.76°W
Report Text: KBMI 261356Z 29003KT 10SM CLR M07/M09 A2998 RMK AO2 T10661088 SLP174
Loading
Personal Weather Stations






























Interactive Weather Map New forecast layout! Learn more

10-Day Weather Forecast

Advertisements
Track Severe Weather on mobile